Weather observations for the past three days for
Kosrae Island - Kosrae Airport
| Date | Time (+11) | Wind (mph) | Vis. (mi.) | Weather | Sky Cond. | Temperature (ºF) | Relative Humidity | Wind Chill (°F) | Heat Index (°F) | Pressure | Precipitation (in) | ||||||
|---|---|---|---|---|---|---|---|---|---|---|---|---|---|---|---|---|---|
| Air | Dwpt | 6 hour | altimeter (in) | sea level (mb) | 1 hr | 3 hr | 6 hr | ||||||||||
| Max. | Min. | ||||||||||||||||
| 05 | 16:55 | N 7 | 10.00 | Showers in Vicinity | BKN016TCU BKN130 BKN300 | 86 | 77 | 75% | 97 | 29.79 | 0.0 | ||||||
| 05 | 15:59 | Vrbl 5 | 10.00 | Mostly Cloudy | BKN018TCU BKN130 BKN300 | 86 | 77 | 75% | 97 | 29.78 | 0.0 | ||||||
| 05 | 14:50 | NW 6 | 10.00 | Showers in Vicinity | BKN017TCU BKN130 BKN300 | 84.2 | 77 | 79% | 94 | 29.79 | 0.0 | ||||||
| 05 | 13:50 | SW 7 | 10.00 | Mostly Cloudy | BKN019TCU BKN130 BKN300 | 87.8 | 77 | 70% | 100 | 29.81 | 0.0 | ||||||
| 05 | 12:50 | W 7 | 10.00 | Mostly Cloudy | SCT018TCU BKN130 BKN300 | 87.8 | 77 | 70% | 100 | 29.82 | 0.0 | ||||||
| 05 | 11:50 | W 6 | 10.00 | Mostly Cloudy | SCT017TCU BKN300 | 87.8 | 77 | 70% | 100 | 29.85 | 0.0 | ||||||
| 05 | 10:50 | SW 7 | 10.00 | Mostly Cloudy | SCT015TCU SCT130 BKN300 | 84.2 | 78.8 | 84% | 96 | 29.88 | 0.0 | ||||||
| 05 | 09:50 | SW 6 | 10.00 | Partly Cloudy | SCT013TCU SCT300 | 82.4 | 77 | 84% | 91 | 29.88 | 0.0 | ||||||
| 05 | 08:58 | W 7 | 10.00 | Showers in Vicinity | SCT014TCU BKN300 | 82.4 | 77 | 84% | 91 | 29.88 | 0.0 | ||||||
| 04 | 13:50 | W 8 | 10.00 | Mostly Cloudy | SCT013 BKN130 BKN300 | 80.6 | 77 | 89% | 87 | 29.82 | 0.0 | ||||||
| 04 | 12:50 | W 12 | 10.00 | Light Showers Rain | BKN012TCU BKN120 OVC290 | 78.8 | 77 | 94% | 83 | 29.86 | 0.0 | ||||||
| 04 | 11:50 | N 8 | 10.00 | Light Showers Rain | BKN012TCU BKN120 OVC280 | 78.8 | 77 | 94% | 83 | 29.89 | 0.0 | ||||||
| 04 | 10:50 | NW 9 | 10.00 | Overcast | BKN012TCU BKN120 OVC280 | 78.8 | 75.2 | 89% | 82 | 29.93 | 0.0 | ||||||
| 04 | 09:55 | N 10 | 10.00 | Light Rain | BKN010TCU BKN120 OVC290 | 77 | 75.2 | 94% | 78 | 29.93 | 0.0 | ||||||
| 03 | 17:50 | W 9 | 10.00 | Overcast | SCT013TCU BKN130 OVC290 | 80.6 | 77 | 89% | 87 | 29.88 | 0.0 | ||||||
| 03 | 16:50 | W 7 | 10.00 | Overcast | SCT013TCU BKN130 OVC300 | 80.6 | 77 | 89% | 87 | 29.86 | 0.0 | ||||||
| 03 | 15:55 | NW 9 | 10.00 | Light Showers Rain | BKN013TCU BKN120 OVC290 | 78.8 | 77 | 94% | 83 | 29.86 | 0.0 | ||||||
| 03 | 14:50 | W 9 | 10.00 | Overcast | BKN015TCU BKN130 OVC290 | 82.4 | 78.8 | 89% | 92 | 29.85 | 0.0 | ||||||
| 03 | 13:50 | W 12 | 10.00 | Overcast | SCT015TCU BKN130 OVC290 | 82.4 | 77 | 84% | 91 | 29.85 | 0.0 | ||||||
| 03 | 12:50 | NW 12 | 10.00 | Overcast | SCT015TCU BKN130 OVC290 | 82.4 | 77 | 84% | 91 | 29.88 | 0.0 | ||||||
| 03 | 11:52 | N 15 | 10.00 | Light Showers Rain | BKN013TCU BKN120 OVC280 | 80.6 | 75.2 | 84% | 86 | 29.91 | 0.0 | ||||||
| 03 | 10:50 | N 18 | 10.00 | Light Showers Rain | BKN012TCU BKN120 OVC280 | 80.6 | 75.2 | 84% | 86 | 29.92 | 0.0 | ||||||
| 03 | 09:50 | Vrbl 3 | 10.00 | Overcast | BKN014TCU BKN130 OVC290 | 82.4 | 77 | 84% | 91 | 29.94 | 0.0 | ||||||
| Date | Time (+11) | Wind (mph) | Vis. (mi.) | Weather | Sky Cond. | Air | Dwpt | Max. | Min. | Relative Humidity | Wind Chill (°F) | Heat Index (°F) | altimeter (in) | sea level (mb) | 1 hr | 3 hr | 6 hr |
| 6 hour | |||||||||||||||||
| Temperature (ºF) | Pressure | Precipitation (in) | |||||||||||||||